createdAt,value
2023-01-11T00:01:36.851Z,10.45
2023-01-11T00:04:15.262Z,10.60
2023-01-11T00:06:44.199Z,10.28
2023-01-11T00:09:12.787Z,10.33
2023-01-11T00:11:39.808Z,10.43
2023-01-11T00:14:15.440Z,10.63
2023-01-11T00:16:42.389Z,10.74
2023-01-11T00:19:09.253Z,10.57
2023-01-11T00:21:38.991Z,10.31
2023-01-11T00:24:15.077Z,10.05
2023-01-11T00:26:44.270Z,10.28
2023-01-11T00:29:20.036Z,10.12
2023-01-11T00:31:47.251Z,10.18
2023-01-11T00:34:14.075Z,10.08
2023-01-11T00:36:43.454Z,10.01
2023-01-11T00:39:10.597Z,10.10
2023-01-11T00:41:57.160Z,10.01
2023-01-11T00:44:44.110Z,10.31
2023-01-11T00:47:39.035Z,10.45
2023-01-11T00:50:26.509Z,10.51
2023-01-11T00:52:56.493Z,10.62
2023-01-11T00:55:29.837Z,10.43
2023-01-11T00:58:08.670Z,10.28
2023-01-11T01:00:37.332Z,10.18
2023-01-11T01:03:06.342Z,10.14
2023-01-11T01:05:44.322Z,9.82
2023-01-11T01:08:13.684Z,9.64
2023-01-11T01:10:49.247Z,9.94
2023-01-11T01:13:39.848Z,9.80
2023-01-11T01:16:07.229Z,9.57
2023-01-11T01:18:34.116Z,9.29
2023-01-11T01:21:03.397Z,9.33
2023-01-11T01:23:30.619Z,9.50
2023-01-11T01:28:36.647Z,9.38
2023-01-11T01:31:04.583Z,9.07
2023-01-11T01:33:32.908Z,9.00
2023-01-11T01:36:04.574Z,9.18
2023-01-11T01:38:31.697Z,8.89
2023-01-11T01:40:58.662Z,8.74
2023-01-11T01:43:51.036Z,8.59
2023-01-11T01:46:21.243Z,8.27
2023-01-11T01:48:56.226Z,8.19
2023-01-11T01:51:31.089Z,8.20
2023-01-11T01:54:02.782Z,8.13
2023-01-11T01:56:36.744Z,8.00
2023-01-11T01:59:10.904Z,8.20
2023-01-11T02:01:48.529Z,8.21
2023-01-11T02:04:27.472Z,8.11
2023-01-11T02:06:59.904Z,7.80
2023-01-11T02:09:55.985Z,8.10
2023-01-11T02:12:30.300Z,8.67
2023-01-11T02:15:03.462Z,8.56
2023-01-11T02:17:31.954Z,8.63
2023-01-11T02:20:08.698Z,8.55
2023-01-11T02:23:08.365Z,8.62
2023-01-11T02:26:21.779Z,8.52
2023-01-11T02:28:57.498Z,8.70
2023-01-11T02:31:39.660Z,8.71
2023-01-11T02:34:31.545Z,8.68
2023-01-11T02:37:11.408Z,8.51
2023-01-11T02:39:49.945Z,8.80
2023-01-11T02:43:01.196Z,9.09
2023-01-11T02:45:46.014Z,9.22
2023-01-11T02:48:35.236Z,8.68
2023-01-11T02:51:08.508Z,8.60
2023-01-11T02:53:35.527Z,8.49
2023-01-11T02:56:13.383Z,8.31
2023-01-11T02:58:45.184Z,7.98
2023-01-11T03:01:22.997Z,8.08
2023-01-11T03:04:07.897Z,7.83
2023-01-11T03:06:35.850Z,7.86
2023-01-11T03:09:38.237Z,7.80
2023-01-11T03:12:42.127Z,7.68
2023-01-11T03:15:19.461Z,7.93
2023-01-11T03:18:16.364Z,8.09
2023-01-11T03:21:02.074Z,8.13
2023-01-11T03:23:44.457Z,8.04
2023-01-11T03:26:29.324Z,7.96
2023-01-11T03:29:13.374Z,8.35
2023-01-11T03:32:11.514Z,7.99
2023-01-11T03:34:57.504Z,8.13
2023-01-11T03:37:50.996Z,8.28
2023-01-11T03:40:41.588Z,8.36
2023-01-11T03:43:14.171Z,8.51
2023-01-11T03:46:09.478Z,8.25
2023-01-11T03:49:26.774Z,8.43
2023-01-11T03:52:02.041Z,8.46
2023-01-11T03:54:38.360Z,8.15
2023-01-11T03:57:12.185Z,8.05
2023-01-11T03:59:42.931Z,7.95
2023-01-11T04:02:25.161Z,7.90
2023-01-11T04:04:55.255Z,7.65
2023-01-11T04:07:23.880Z,7.88
2023-01-11T04:09:58.673Z,7.71
2023-01-11T04:12:28.175Z,7.61
2023-01-11T04:14:55.014Z,7.58
2023-01-11T04:17:21.819Z,7.71
2023-01-11T04:19:50.991Z,7.75
2023-01-11T04:22:21.350Z,7.47
2023-01-11T04:24:48.869Z,7.47
2023-01-11T04:27:15.726Z,7.58
2023-01-11T04:29:42.888Z,7.50
2023-01-11T04:32:13.661Z,7.73
2023-01-11T04:34:43.909Z,7.76
2023-01-11T04:37:13.433Z,7.95
2023-01-11T04:39:45.639Z,7.87
2023-01-11T04:42:18.861Z,7.85
2023-01-11T04:44:48.876Z,7.74
2023-01-11T04:47:23.407Z,7.37
2023-01-11T04:49:50.778Z,7.26
2023-01-11T04:52:21.370Z,7.55
2023-01-11T04:54:51.663Z,7.49
2023-01-11T04:57:18.827Z,7.55
2023-01-11T04:59:55.241Z,7.82
2023-01-11T05:02:25.293Z,8.15
2023-01-11T05:04:52.149Z,7.99
2023-01-11T05:07:19.766Z,8.23
2023-01-11T05:10:00.658Z,8.07
2023-01-11T05:12:38.000Z,7.85
2023-01-11T05:15:19.331Z,7.74
2023-01-11T05:17:49.378Z,7.67
2023-01-11T05:20:16.399Z,7.62
2023-01-11T05:22:48.973Z,7.77
2023-01-11T05:25:21.678Z,7.92
2023-01-11T05:27:56.087Z,8.04
2023-01-11T05:30:23.524Z,8.11
2023-01-11T05:32:56.112Z,8.32
2023-01-11T05:35:26.205Z,7.90
2023-01-11T05:37:58.787Z,8.20
2023-01-11T05:40:37.769Z,8.36
2023-01-11T05:43:12.210Z,8.39
2023-01-11T05:45:40.324Z,8.07
2023-01-11T05:48:08.903Z,7.88
2023-01-11T05:50:36.183Z,7.78
2023-01-11T05:53:09.789Z,7.73
2023-01-11T05:55:39.758Z,7.84
2023-01-11T05:58:11.530Z,7.70
2023-01-11T06:01:06.087Z,7.59
2023-01-11T06:03:35.461Z,7.36
2023-01-11T06:06:05.058Z,7.34
2023-01-11T06:08:38.336Z,7.37
2023-01-11T06:11:05.414Z,7.20
2023-01-11T06:13:36.050Z,7.14
2023-01-11T06:16:16.071Z,7.02
2023-01-11T06:18:45.631Z,6.99
2023-01-11T06:21:21.334Z,6.96
2023-01-11T06:23:53.801Z,7.25
2023-01-11T06:26:25.137Z,7.02
2023-01-11T06:28:52.060Z,7.03
2023-01-11T06:31:21.566Z,7.41
2023-01-11T06:33:48.497Z,7.65
2023-01-11T06:36:19.171Z,7.42
2023-01-11T06:38:46.031Z,7.54
2023-01-11T06:41:13.684Z,7.54
2023-01-11T06:43:42.675Z,7.55
2023-01-11T06:46:19.185Z,7.69
2023-01-11T06:48:52.994Z,7.62
2023-01-11T06:51:25.431Z,7.63
2023-01-11T06:53:52.279Z,7.44
2023-01-11T06:56:19.244Z,7.25
2023-01-11T06:58:53.660Z,7.60
2023-01-11T07:01:27.043Z,7.56
2023-01-11T07:04:00.852Z,7.35
2023-01-11T07:06:29.365Z,7.33
2023-01-11T07:08:58.880Z,7.25
2023-01-11T07:11:33.675Z,7.26
2023-01-11T07:14:03.413Z,7.15
2023-01-11T07:16:30.233Z,7.82
2023-01-11T07:18:57.068Z,8.59
2023-01-11T07:21:23.973Z,8.42
2023-01-11T07:23:55.659Z,8.03
2023-01-11T07:26:29.977Z,7.86
2023-01-11T07:28:59.320Z,8.59
2023-01-11T07:31:26.263Z,8.62
2023-01-11T07:33:55.989Z,8.83
2023-01-11T07:36:27.325Z,9.41
2023-01-11T07:38:57.036Z,8.95
2023-01-11T07:41:43.031Z,9.19
2023-01-11T07:44:10.573Z,9.37
2023-01-11T07:46:40.062Z,9.38
2023-01-11T07:49:07.697Z,8.69
2023-01-11T07:51:34.907Z,8.17
2023-01-11T07:54:04.171Z,7.89
2023-01-11T07:56:31.531Z,7.65
2023-01-11T07:59:01.347Z,7.67
2023-01-11T08:01:31.348Z,8.51
2023-01-11T08:03:58.189Z,8.26
2023-01-11T08:06:25.024Z,8.58
2023-01-11T08:08:53.873Z,8.75
2023-01-11T08:14:43.917Z,10.99
2023-01-11T08:17:22.181Z,10.73
2023-01-11T08:19:48.990Z,10.13
2023-01-11T08:22:17.669Z,10.18
2023-01-11T08:24:44.958Z,9.51
2023-01-11T08:27:11.835Z,9.29
2023-01-11T08:29:40.059Z,9.09
2023-01-11T08:32:06.855Z,9.15
2023-01-11T08:34:34.852Z,9.20
2023-01-11T08:37:04.608Z,9.45
2023-01-11T08:39:32.232Z,10.05
2023-01-11T08:44:51.923Z,8.76
2023-01-11T08:47:25.368Z,9.88
2023-01-11T08:49:52.197Z,10.34
2023-01-11T08:52:24.632Z,9.31
2023-01-11T08:55:08.813Z,9.71
2023-01-11T08:57:36.866Z,10.32
2023-01-11T09:00:06.301Z,10.89
2023-01-11T09:02:36.731Z,10.10
2023-01-11T09:05:07.429Z,10.64
2023-01-11T09:07:34.545Z,10.05
2023-01-11T09:10:10.708Z,10.21
2023-01-11T09:12:45.073Z,9.59
2023-01-11T09:15:12.010Z,9.72
2023-01-11T09:17:39.999Z,9.98
2023-01-11T09:20:13.116Z,9.42
2023-01-11T09:23:15.268Z,9.24
2023-01-11T09:25:45.279Z,9.37
2023-01-11T09:28:12.727Z,9.13
2023-01-11T09:30:39.996Z,9.44
2023-01-11T09:33:09.262Z,9.46
2023-01-11T09:35:38.735Z,9.67
2023-01-11T09:38:09.075Z,10.05
2023-01-11T09:41:08.622Z,10.01
2023-01-11T09:43:54.153Z,9.78
2023-01-11T09:46:22.280Z,10.12
2023-01-11T09:48:56.519Z,10.18
2023-01-11T09:51:41.801Z,10.05
2023-01-11T09:54:26.214Z,10.07
2023-01-11T09:57:16.633Z,10.06
2023-01-11T09:59:54.405Z,10.08
2023-01-11T10:03:08.173Z,9.97
2023-01-11T10:05:59.615Z,10.11
2023-01-11T10:18:29.329Z,10.31
2023-01-11T10:19:10.384Z,10.15
2023-01-11T10:22:45.047Z,10.27
2023-01-11T10:25:54.560Z,10.23
2023-01-11T10:32:07.985Z,10.41
2023-01-11T10:42:22.049Z,10.81
2023-01-11T10:45:40.801Z,10.76
2023-01-11T10:48:25.684Z,10.63
2023-01-11T10:51:37.097Z,10.53
2023-01-11T10:54:34.579Z,10.63
2023-01-11T10:57:20.146Z,10.71
2023-01-11T11:00:08.206Z,10.84
2023-01-11T11:02:54.400Z,10.75
2023-01-11T11:05:43.109Z,10.72
2023-01-11T11:08:33.911Z,10.87
2023-01-11T11:11:22.440Z,10.93
2023-01-11T11:14:04.790Z,10.79
2023-01-11T11:16:54.701Z,10.85
2023-01-11T11:19:26.843Z,10.95
2023-01-11T11:21:54.070Z,11.04
2023-01-11T11:24:44.284Z,11.09
2023-01-11T11:27:45.829Z,11.00
2023-01-11T11:30:25.636Z,11.32
2023-01-11T11:33:00.746Z,11.39
2023-01-11T11:35:40.062Z,11.31
2023-01-11T11:38:30.883Z,11.29
2023-01-11T11:40:59.406Z,11.27
2023-01-11T11:43:28.424Z,11.30
2023-01-11T11:45:59.451Z,11.34
2023-01-11T11:48:32.856Z,11.49
2023-01-11T11:51:03.200Z,11.54
2023-01-11T11:53:46.169Z,11.54
2023-01-11T11:56:23.333Z,11.48
2023-01-11T11:58:50.984Z,11.57
2023-01-11T12:01:36.295Z,11.69
2023-01-11T12:04:25.005Z,11.47
2023-01-11T12:07:04.673Z,11.66
2023-01-11T12:09:43.711Z,11.74
2023-01-11T12:12:24.408Z,11.93
2023-01-11T12:15:24.506Z,11.83
2023-01-11T12:17:55.988Z,12.01
2023-01-11T12:20:22.794Z,12.03
2023-01-11T12:22:53.805Z,12.04
2023-01-11T12:25:22.175Z,11.81
2023-01-11T12:28:07.668Z,11.80
2023-01-11T12:30:47.077Z,11.79
2023-01-11T12:33:13.856Z,11.76
2023-01-11T12:36:09.900Z,11.67
2023-01-11T12:38:46.201Z,11.89
2023-01-11T12:41:19.118Z,11.79
2023-01-11T12:44:32.909Z,11.63
2023-01-11T12:47:09.405Z,11.67
2023-01-11T12:50:00.517Z,11.78
2023-01-11T12:52:41.631Z,11.92
2023-01-11T12:55:38.152Z,11.95
2023-01-11T12:58:35.340Z,11.96
2023-01-11T13:01:39.211Z,11.88
2023-01-11T13:04:46.845Z,11.86
2023-01-11T13:07:19.654Z,11.84
2023-01-11T13:09:52.545Z,11.82
2023-01-11T13:12:46.071Z,11.77
2023-01-11T13:15:13.082Z,11.90
2023-01-11T13:17:58.873Z,11.97
2023-01-11T13:21:00.805Z,11.95
2023-01-11T13:23:50.411Z,11.97
2023-01-11T13:26:25.775Z,12.07
2023-01-11T13:29:03.999Z,12.19
2023-01-11T13:31:33.749Z,12.16
2023-01-11T13:34:43.595Z,12.27
2023-01-11T13:37:26.089Z,12.22
2023-01-11T13:40:01.845Z,12.20
2023-01-11T13:42:41.927Z,12.25
2023-01-11T13:45:21.759Z,12.29
2023-01-11T13:47:55.896Z,12.19
2023-01-11T13:50:38.505Z,12.17
2023-01-11T13:53:43.901Z,12.30
2023-01-11T13:56:26.460Z,12.38
2023-01-11T13:59:03.452Z,12.31
2023-01-11T14:01:51.612Z,12.22
2023-01-11T14:04:30.267Z,12.07
2023-01-11T14:07:20.378Z,12.24
2023-01-11T14:09:53.545Z,12.26
2023-01-11T14:12:43.098Z,12.17
2023-01-11T14:15:38.739Z,12.16
2023-01-11T14:18:29.439Z,12.19
2023-01-11T14:21:07.504Z,12.04
2023-01-11T14:23:49.388Z,12.09
2023-01-11T14:26:19.257Z,12.11
2023-01-11T14:28:49.103Z,11.99
2023-01-11T14:31:16.059Z,12.00
2023-01-11T14:34:04.239Z,11.91
2023-01-11T14:37:05.657Z,11.89
2023-01-11T14:40:04.832Z,11.88
2023-01-11T14:43:02.976Z,11.89
2023-01-11T14:45:54.654Z,11.76
2023-01-11T14:48:40.656Z,11.79
2023-01-11T14:51:30.654Z,11.77
2023-01-11T14:54:31.816Z,11.83
2023-01-11T14:56:59.326Z,11.66
2023-01-11T14:59:29.215Z,11.70
2023-01-11T15:02:05.397Z,11.87
2023-01-11T15:04:55.256Z,11.87
2023-01-11T15:07:25.095Z,11.80
2023-01-11T15:09:56.840Z,11.98
2023-01-11T15:12:32.212Z,11.75
2023-01-11T15:15:19.007Z,11.87
2023-01-11T15:18:04.911Z,11.82
2023-01-11T15:20:33.942Z,11.82
2023-01-11T15:23:05.952Z,12.03
2023-01-11T15:25:35.961Z,12.29
2023-01-11T15:28:25.150Z,12.32
2023-01-11T15:30:53.022Z,12.34
2023-01-11T15:33:20.052Z,12.39
2023-01-11T15:35:56.029Z,12.63
2023-01-11T15:39:03.256Z,12.68
2023-01-11T15:42:04.348Z,12.16
2023-01-11T15:45:08.873Z,11.51
2023-01-11T15:47:41.998Z,10.98
2023-01-11T15:50:30.743Z,10.93
2023-01-11T15:53:12.751Z,10.85
2023-01-11T15:56:10.434Z,10.82
2023-01-11T15:59:02.691Z,11.34
2023-01-11T16:01:30.234Z,11.06
2023-01-11T16:04:21.478Z,10.81
2023-01-11T16:06:59.318Z,10.93
2023-01-11T16:10:00.338Z,10.76
2023-01-11T16:12:48.699Z,10.61
2023-01-11T16:15:33.586Z,10.74
2023-01-11T16:18:23.400Z,10.66
2023-01-11T16:21:04.881Z,10.42
2023-01-11T16:23:32.717Z,10.30
2023-01-11T16:26:00.541Z,10.54
2023-01-11T16:28:28.225Z,10.59
2023-01-11T16:30:57.222Z,10.44
2023-01-11T16:33:29.804Z,10.10
2023-01-11T16:36:03.201Z,9.78
2023-01-11T16:38:31.804Z,9.74
2023-01-11T16:40:59.838Z,9.56
2023-01-11T16:43:29.764Z,9.38
2023-01-11T16:45:56.978Z,9.30
2023-01-11T16:48:25.961Z,9.37
2023-01-11T16:51:04.024Z,9.44
2023-01-11T16:53:39.599Z,9.55
2023-01-11T16:56:36.488Z,9.84
2023-01-11T16:59:15.741Z,9.76
2023-01-11T17:01:45.951Z,9.69
2023-01-11T17:04:36.637Z,9.54
2023-01-11T17:07:27.700Z,9.62
2023-01-11T17:10:30.486Z,9.94
2023-01-11T17:16:51.382Z,9.48
2023-01-11T17:19:33.729Z,9.44
2023-01-11T17:22:15.235Z,9.29
2023-01-11T17:25:07.784Z,9.08
2023-01-11T17:27:50.924Z,8.93
2023-01-11T17:30:22.023Z,9.26
2023-01-11T17:32:51.053Z,9.41
2023-01-11T17:35:24.786Z,9.50
2023-01-11T17:37:57.955Z,9.38
2023-01-11T17:40:39.016Z,9.33
2023-01-11T17:43:31.905Z,9.30
2023-01-11T17:46:02.886Z,8.95
2023-01-11T17:48:34.715Z,8.96
2023-01-11T17:51:05.769Z,8.85
2023-01-11T17:53:37.676Z,8.89
2023-01-11T17:56:07.924Z,8.78
2023-01-11T17:58:42.561Z,8.85
2023-01-11T18:01:20.657Z,9.08
2023-01-11T18:03:59.317Z,9.20
2023-01-11T18:06:40.204Z,9.23
2023-01-11T18:09:32.490Z,9.08
2023-01-11T18:12:18.690Z,8.90
2023-01-11T18:14:55.655Z,8.81
2023-01-11T18:17:42.336Z,8.79
2023-01-11T18:20:21.501Z,8.80
2023-01-11T18:23:16.920Z,8.78
2023-01-11T18:25:49.057Z,8.78
2023-01-11T18:28:20.393Z,8.67
2023-01-11T18:30:54.409Z,8.96
2023-01-11T18:33:24.398Z,9.06
2023-01-11T18:36:03.009Z,9.01
2023-01-11T18:38:35.128Z,8.96
2023-01-11T18:41:34.170Z,8.79
2023-01-11T18:44:02.973Z,8.83
2023-01-11T18:46:29.860Z,8.83
2023-01-11T18:49:00.196Z,8.80
2023-01-11T18:51:35.731Z,8.77
2023-01-11T18:54:02.705Z,8.72
2023-01-11T18:56:32.789Z,8.71
2023-01-11T18:58:59.640Z,8.60
2023-01-11T19:01:26.682Z,8.60
2023-01-11T19:03:54.612Z,8.66
2023-01-11T19:06:23.099Z,8.74
2023-01-11T19:08:49.860Z,8.99
2023-01-11T19:11:19.854Z,9.01
2023-01-11T19:13:47.279Z,9.10
2023-01-11T19:16:18.029Z,9.11
2023-01-11T19:18:48.542Z,8.92
2023-01-11T19:21:15.678Z,8.90
2023-01-11T19:23:42.603Z,8.72
2023-01-11T19:26:09.652Z,8.83
2023-01-11T19:28:37.752Z,8.86
2023-01-11T19:31:09.349Z,9.05
2023-01-11T19:33:36.605Z,9.04
2023-01-11T19:36:08.158Z,9.03
2023-01-11T19:38:35.868Z,8.95
2023-01-11T19:41:11.160Z,9.14
2023-01-11T19:43:47.561Z,8.99
2023-01-11T19:46:30.692Z,9.22
2023-01-11T19:48:58.996Z,9.25
2023-01-11T19:51:28.233Z,9.54
2023-01-11T19:53:56.609Z,9.50
2023-01-11T19:56:24.419Z,9.25
2023-01-11T19:58:54.334Z,9.48
2023-01-11T20:01:23.368Z,9.89
2023-01-11T20:03:53.025Z,9.67
2023-01-11T20:06:20.577Z,9.40
2023-01-11T20:08:51.378Z,9.58
2023-01-11T20:11:20.401Z,9.21
2023-01-11T20:13:53.182Z,8.99
2023-01-11T20:16:22.887Z,8.91
2023-01-11T20:18:57.337Z,8.72
2023-01-11T20:21:27.695Z,8.63
2023-01-11T20:23:59.874Z,8.72
2023-01-11T20:26:34.254Z,8.73
2023-01-11T20:29:02.099Z,8.78
2023-01-11T20:31:31.994Z,8.76
2023-01-11T20:34:00.357Z,8.60
2023-01-11T20:36:33.112Z,8.59
2023-01-11T20:39:01.636Z,8.60
2023-01-11T20:41:47.934Z,8.65
2023-01-11T20:44:20.532Z,8.71
2023-01-11T20:46:52.044Z,8.62
2023-01-11T20:49:27.000Z,8.55
2023-01-11T20:52:00.268Z,8.57
2023-01-11T20:54:27.862Z,8.73
2023-01-11T20:57:01.404Z,8.84
2023-01-11T20:59:28.949Z,9.07
2023-01-11T21:01:56.137Z,9.01
2023-01-11T21:04:28.352Z,9.03
2023-01-11T21:06:55.675Z,9.14
2023-01-11T21:09:22.634Z,9.12
2023-01-11T21:11:54.271Z,9.07
2023-01-11T21:14:22.728Z,8.96
2023-01-11T21:16:50.540Z,9.08
2023-01-11T21:19:18.936Z,8.91
2023-01-11T21:21:49.590Z,8.85
2023-01-11T21:24:18.118Z,9.02
2023-01-11T21:27:15.003Z,8.97
2023-01-11T21:29:43.533Z,9.11
2023-01-11T21:32:10.493Z,9.11
2023-01-11T21:34:39.011Z,8.97
2023-01-11T21:37:08.109Z,9.45
2023-01-11T21:39:37.132Z,9.34
2023-01-11T21:42:05.408Z,9.03
2023-01-11T21:44:34.092Z,8.97
2023-01-11T21:47:05.844Z,8.94
2023-01-11T21:49:33.484Z,8.95
2023-01-11T21:52:05.191Z,8.82
2023-01-11T21:54:32.655Z,8.70
2023-01-11T21:56:59.517Z,8.77
2023-01-11T21:59:26.536Z,8.81
2023-01-11T22:01:59.065Z,8.78
2023-01-11T22:04:29.439Z,8.85
2023-01-11T22:07:01.467Z,8.73
2023-01-11T22:09:28.716Z,8.87
2023-01-11T22:11:57.577Z,9.02
2023-01-11T22:14:26.501Z,8.87
2023-01-11T22:16:53.713Z,8.90
2023-01-11T22:19:23.289Z,8.89
2023-01-11T22:21:51.277Z,8.98
2023-01-11T22:24:22.010Z,8.95
2023-01-11T22:26:51.543Z,8.98
2023-01-11T22:29:21.027Z,8.83
2023-01-11T22:31:55.198Z,9.05
2023-01-11T22:34:22.957Z,8.98
2023-01-11T22:36:50.132Z,8.85
2023-01-11T22:39:19.814Z,8.84
2023-01-11T22:41:49.501Z,8.80
2023-01-11T22:44:16.674Z,8.75
2023-01-11T22:46:44.901Z,9.25
2023-01-11T22:49:18.434Z,9.18
2023-01-11T22:51:46.870Z,9.21
2023-01-11T22:54:16.883Z,9.01
2023-01-11T22:56:45.031Z,8.90
2023-01-11T22:59:12.444Z,8.81
2023-01-11T23:01:41.793Z,8.90
2023-01-11T23:04:12.619Z,8.87
2023-01-11T23:06:46.041Z,8.91
2023-01-11T23:09:16.163Z,9.09
2023-01-11T23:12:01.954Z,9.36
2023-01-11T23:14:33.960Z,9.38
2023-01-11T23:17:12.939Z,9.23
2023-01-11T23:19:47.743Z,9.28
2023-01-11T23:22:17.854Z,9.19
2023-01-11T23:24:44.786Z,9.11
2023-01-11T23:27:11.855Z,9.23
2023-01-11T23:29:38.763Z,9.17
2023-01-11T23:32:05.964Z,9.23
2023-01-11T23:34:34.209Z,9.28
2023-01-11T23:37:02.142Z,9.27
2023-01-11T23:39:29.480Z,9.45
2023-01-11T23:42:14.793Z,9.42
2023-01-11T23:44:42.531Z,9.17
2023-01-11T23:47:36.751Z,9.06
2023-01-11T23:50:03.800Z,8.94
2023-01-11T23:52:32.690Z,9.44
2023-01-11T23:55:04.381Z,9.29
2023-01-11T23:57:32.491Z,8.99
2023-01-11T23:59:59.456Z,9.22
